Time;durP1;ratioP1;P1;durP2;ratioP2;P2;SDS_P1;SDS_P2;PMS_P1;PMS_P2;Temp;Humidity;BMP_temperature;BMP_pressure;BME280_temperature;BME280_humidity;BME280_pressure;Samples;Min_cycle;Max_cycle;Signal;HPM_P1;HPM_P2
2022/02/08 00:00:52;;;;;;;4.85;2.13;;;0.70;99.90;;;;;;4970030;28;20621;-73
2022/02/08 00:03:21;;;;;;;6.93;2.40;;;0.70;99.90;;;;;;4970217;28;20703;-73
2022/02/08 00:05:59;;;;;;;4.93;2.17;;;0.70;99.90;;;;;;4970674;28;20331;-71
2022/02/08 00:08:25;;;;;;;5.90;2.10;;;0.70;99.90;;;;;;4970358;28;20322;-71
2022/02/08 00:10:52;;;;;;;4.45;2.08;;;0.80;99.90;;;;;;4970555;28;20223;-71
2022/02/08 00:13:20;;;;;;;3.80;1.95;;;0.80;99.90;;;;;;4969701;28;20215;-71
2022/02/08 00:15:47;;;;;;;6.40;2.00;;;0.80;99.90;;;;;;4970466;28;20607;-71
2022/02/08 00:18:13;;;;;;;5.63;2.33;;;0.80;99.90;;;;;;4970128;28;20226;-71
2022/02/08 00:20:40;;;;;;;8.05;2.35;;;0.90;99.90;;;;;;4971136;28;20207;-71
2022/02/08 00:23:07;;;;;;;1.83;1.63;;;0.80;99.90;;;;;;4969167;28;20667;-71
2022/02/08 00:25:34;;;;;;;3.17;2.22;;;0.90;99.90;;;;;;4970780;28;20232;-73
2022/02/08 00:28:00;;;;;;;4.65;2.15;;;0.90;99.90;;;;;;4970494;28;20231;-74
2022/02/08 00:30:28;;;;;;;4.00;2.35;;;0.90;99.90;;;;;;4970118;28;20216;-71
2022/02/08 00:32:55;;;;;;;6.15;2.38;;;1.00;99.90;;;;;;4970201;28;20212;-71
2022/02/08 00:35:22;;;;;;;3.67;1.83;;;1.00;99.90;;;;;;4969563;28;20235;-71
2022/02/08 00:37:49;;;;;;;4.43;2.25;;;1.00;99.90;;;;;;4970372;28;20207;-71
2022/02/08 00:40:17;;;;;;;4.35;2.05;;;1.10;99.90;;;;;;4969834;28;20207;-71
2022/02/08 00:42:43;;;;;;;4.35;2.28;;;1.10;99.90;;;;;;4969772;28;20211;-71
2022/02/08 00:45:23;;;;;;;2.97;1.92;;;1.20;99.90;;;;;;4969480;28;20235;-73
2022/02/08 00:47:55;;;;;;;7.05;2.10;;;1.20;99.90;;;;;;4970087;28;20231;-73
2022/02/08 00:50:22;;;;;;;5.22;2.00;;;1.20;99.90;;;;;;4969932;28;20208;-73
2022/02/08 00:52:49;;;;;;;6.00;3.35;;;1.20;99.90;;;;;;4969607;28;20359;-73
2022/02/08 00:55:16;;;;;;;4.97;2.10;;;1.30;99.90;;;;;;4969944;28;20223;-71
2022/02/08 00:57:43;;;;;;;6.13;3.72;;;1.30;99.90;;;;;;4970172;28;20901;-71
2022/02/08 01:00:10;;;;;;;3.20;1.85;;;1.40;99.90;;;;;;4969188;28;20203;-71
2022/02/08 01:02:37;;;;;;;6.13;2.10;;;1.40;99.90;;;;;;4969529;28;20212;-71
2022/02/08 01:05:09;;;;;;;5.20;2.75;;;1.30;99.90;;;;;;4970229;28;20211;-70
2022/02/08 01:07:36;;;;;;;3.90;2.33;;;1.40;99.90;;;;;;4971658;28;20234;-71
2022/02/08 01:10:05;;;;;;;4.68;2.03;;;1.40;99.90;;;;;;4974371;28;20204;-71
2022/02/08 01:12:34;;;;;;;4.85;2.55;;;1.40;99.90;;;;;;4974556;28;20203;-71
2022/02/08 01:15:03;;;;;;;7.55;2.53;;;1.40;99.90;;;;;;4974514;28;20226;-72
2022/02/08 01:17:29;;;;;;;6.63;1.95;;;1.40;99.90;;;;;;4975101;28;20235;-71
2022/02/08 01:20:04;;;;;;;2.63;1.90;;;1.40;99.90;;;;;;4975483;28;20243;-71
2022/02/08 01:22:32;;;;;;;6.63;2.40;;;1.40;99.90;;;;;;4974588;28;20233;-71
2022/02/08 01:24:59;;;;;;;5.43;2.55;;;1.40;99.90;;;;;;4974892;28;20749;-71
2022/02/08 01:27:30;;;;;;;3.80;2.30;;;1.30;99.90;;;;;;4974170;28;20227;-71
2022/02/08 01:29:57;;;;;;;3.60;1.52;;;1.30;99.90;;;;;;4974776;28;20212;-71
2022/02/08 01:32:53;;;;;;;4.15;2.72;;;1.30;99.90;;;;;;4974050;28;20215;-70
2022/02/08 01:35:43;;;;;;;4.20;2.15;;;1.30;99.90;;;;;;4974795;28;20220;-71
2022/02/08 01:38:16;;;;;;;6.22;3.00;;;1.30;99.90;;;;;;4975029;28;20196;-71
2022/02/08 01:41:03;;;;;;;3.20;1.83;;;1.30;99.90;;;;;;4975245;28;20207;-71
2022/02/08 01:43:54;;;;;;;5.13;3.53;;;1.30;99.90;;;;;;4954885;28;20327;-71
2022/02/08 01:46:31;;;;;;;5.57;2.17;;;1.30;99.90;;;;;;4952573;28;20323;-71
2022/02/08 01:49:11;;;;;;;3.50;2.85;;;1.30;99.90;;;;;;4951826;28;20200;-70
2022/02/08 01:51:37;;;;;;;4.70;1.88;;;1.30;99.90;;;;;;4951212;28;20667;-70
2022/02/08 01:54:06;;;;;;;6.40;2.15;;;1.30;99.90;;;;;;4950167;29;20212;-71
2022/02/08 01:56:33;;;;;;;4.13;2.78;;;1.30;99.90;;;;;;4950185;29;20228;-71
2022/02/08 01:58:59;;;;;;;5.95;2.70;;;1.40;99.90;;;;;;4950725;28;20243;-71
2022/02/08 02:01:26;;;;;;;5.55;2.08;;;1.30;99.90;;;;;;4950429;28;20907;-71
2022/02/08 02:03:53;;;;;;;3.67;1.80;;;1.40;99.90;;;;;;4950001;28;20209;-71
2022/02/08 02:06:20;;;;;;;2.20;1.30;;;1.30;99.90;;;;;;4950349;28;20224;-71
2022/02/08 02:08:46;;;;;;;4.20;1.85;;;1.40;99.90;;;;;;4950526;28;20229;-71
2022/02/08 02:11:14;;;;;;;4.95;1.92;;;1.50;99.90;;;;;;4950079;28;20212;-71
2022/02/08 02:13:44;;;;;;;4.40;2.17;;;1.50;99.90;;;;;;4950098;29;20215;-71
2022/02/08 02:16:14;;;;;;;3.92;2.33;;;1.50;99.90;;;;;;4956641;28;20729;-70
2022/02/08 02:18:41;;;;;;;5.35;2.22;;;1.40;99.90;;;;;;4969708;28;20200;-71
2022/02/08 02:21:08;;;;;;;5.50;2.40;;;1.40;99.90;;;;;;4969315;28;20204;-71
2022/02/08 02:23:34;;;;;;;3.75;1.67;;;1.40;99.90;;;;;;4969213;28;20203;-71
2022/02/08 02:26:03;;;;;;;3.05;1.85;;;1.50;99.90;;;;;;4969525;28;20219;-71
2022/02/08 02:28:31;;;;;;;6.25;2.15;;;1.50;99.90;;;;;;4968984;28;20281;-71
2022/02/08 02:30:58;;;;;;;2.00;1.80;;;1.50;99.90;;;;;;4969405;28;20231;-71
2022/02/08 02:33:25;;;;;;;3.53;2.00;;;1.50;99.90;;;;;;4968692;28;20228;-71
2022/02/08 02:35:53;;;;;;;4.43;2.45;;;1.60;99.90;;;;;;4969446;28;20592;-71
2022/02/08 02:38:23;;;;;;;4.22;2.10;;;1.60;99.90;;;;;;4968876;28;20743;-71
2022/02/08 02:40:50;;;;;;;5.45;2.10;;;1.50;99.90;;;;;;4969393;28;20212;-71
2022/02/08 02:43:18;;;;;;;5.30;2.42;;;1.60;99.90;;;;;;4968393;28;20208;-71
2022/02/08 02:45:45;;;;;;;5.35;2.00;;;1.60;99.90;;;;;;4969094;28;20862;-71
2022/02/08 02:48:11;;;;;;;4.00;1.63;;;1.70;99.90;;;;;;4968870;28;20223;-71
2022/02/08 02:50:38;;;;;;;4.88;1.95;;;1.70;99.90;;;;;;4969202;28;20659;-71
2022/02/08 02:53:05;;;;;;;3.95;1.88;;;1.70;99.90;;;;;;4968651;28;20208;-71
2022/02/08 02:55:34;;;;;;;5.82;1.92;;;1.70;99.90;;;;;;4968806;28;20231;-71
2022/02/08 02:58:02;;;;;;;3.00;2.40;;;1.70;99.90;;;;;;4968858;28;20204;-71
2022/02/08 03:00:37;;;;;;;4.00;1.63;;;1.80;99.90;;;;;;4969043;28;20557;-71
2022/02/08 03:06:08;;;;;;;5.80;1.80;;;1.80;99.90;;;;;;4968109;28;20819;-71
2022/02/08 03:19:32;;;;;;;3.90;1.70;;;1.80;99.90;;;;;;4968783;28;20662;-71
2022/02/08 03:21:59;;;;;;;3.40;1.85;;;1.80;99.90;;;;;;4968684;28;20211;-70
2022/02/08 03:24:26;;;;;;;11.35;1.98;;;1.80;99.90;;;;;;4968144;28;20204;-71
2022/02/08 03:26:53;;;;;;;4.03;1.75;;;1.70;99.90;;;;;;4968694;28;20227;-71
2022/02/08 03:29:20;;;;;;;2.85;1.58;;;1.70;99.90;;;;;;4968198;28;20220;-71
2022/02/08 03:31:48;;;;;;;3.72;1.90;;;1.60;99.90;;;;;;4968529;28;20222;-71
2022/02/08 03:34:15;;;;;;;2.80;2.00;;;1.60;99.90;;;;;;4967934;28;20680;-71
2022/02/08 03:36:42;;;;;;;4.75;2.30;;;1.60;99.90;;;;;;4968861;28;20220;-71
2022/02/08 03:39:15;;;;;;;2.88;2.47;;;1.60;99.90;;;;;;4968605;28;20203;-71
2022/02/08 03:41:46;;;;;;;4.97;1.85;;;1.60;99.90;;;;;;4968392;28;20621;-71
2022/02/08 03:44:17;;;;;;;2.10;1.88;;;1.60;99.90;;;;;;4968554;28;20261;-70
2022/02/08 03:46:45;;;;;;;8.40;3.35;;;1.60;99.90;;;;;;4968801;28;20230;-71
2022/02/08 03:49:14;;;;;;;4.35;2.05;;;1.60;99.90;;;;;;4968103;28;20219;-71
2022/02/08 03:51:50;;;;;;;4.72;2.20;;;1.60;99.90;;;;;;4968724;28;20204;-71
2022/02/08 03:54:18;;;;;;;5.13;2.30;;;1.60;99.90;;;;;;4967919;28;20560;-71
2022/02/08 03:56:45;;;;;;;4.78;2.10;;;1.60;99.90;;;;;;4968620;28;20224;-71
2022/02/08 03:59:12;;;;;;;5.75;2.17;;;1.60;99.90;;;;;;4967907;28;20425;-71
2022/02/08 04:07:14;;;;;;;5.32;2.03;;;1.60;99.90;;;;;;4957765;28;20242;-72
2022/02/08 04:09:41;;;;;;;4.68;2.47;;;1.50;99.90;;;;;;4968133;28;20204;-71
2022/02/08 04:12:15;;;;;;;4.93;2.13;;;1.50;99.90;;;;;;4967543;28;20235;-71
2022/02/08 04:14:48;;;;;;;5.53;2.60;;;1.60;99.90;;;;;;4968232;28;20200;-71
2022/02/08 04:17:27;;;;;;;3.38;2.25;;;1.60;99.90;;;;;;4967801;28;20302;-71
2022/02/08 04:34:18;;;;;;;6.05;2.47;;;1.80;99.90;;;;;;4970618;28;20234;-71
2022/02/08 04:37:08;;;;;;;7.25;1.85;;;1.80;99.90;;;;;;4969755;28;20273;-71
2022/02/08 04:39:50;;;;;;;3.95;1.80;;;1.80;99.90;;;;;;4968402;28;20210;-72
2022/02/08 04:42:23;;;;;;;5.85;1.90;;;1.90;99.90;;;;;;4970368;28;20265;-72
2022/02/08 04:45:00;;;;;;;6.55;3.38;;;1.90;99.90;;;;;;4971562;28;20208;-71
2022/02/08 04:47:32;;;;;;;2.88;1.90;;;1.90;99.90;;;;;;4971113;28;20610;-72
2022/02/08 04:49:58;;;;;;;8.52;1.98;;;1.90;99.90;;;;;;4971358;28;20208;-72
2022/02/08 04:52:28;;;;;;;5.72;1.80;;;1.80;99.90;;;;;;4970524;28;20223;-72
2022/02/08 04:55:04;;;;;;;4.60;1.92;;;1.80;99.90;;;;;;4970983;28;20210;-72
2022/02/08 04:57:39;;;;;;;3.67;2.17;;;1.80;99.90;;;;;;4971151;28;20298;-72
2022/02/08 05:00:20;;;;;;;7.57;3.03;;;1.80;99.90;;;;;;4971399;28;20523;-72
2022/02/08 05:35:33;;;;;;;4.90;2.10;;;2.00;99.90;;;;;;5047918;28;20230;-74
2022/02/08 05:41:38;;;;;;;9.70;2.50;;;2.10;99.90;;;;;;5039029;28;20655;-74
2022/02/08 05:44:12;;;;;;;6.20;2.55;;;2.10;99.90;;;;;;5040615;28;20216;-74
2022/02/08 05:49:28;;;;;;;4.30;1.73;;;2.00;99.90;;;;;;5041214;28;20313;-74
2022/02/08 05:54:51;;;;;;;3.83;1.58;;;2.10;99.90;;;;;;5039613;28;20278;-74
2022/02/08 05:57:20;;;;;;;5.47;2.30;;;2.10;99.90;;;;;;5041826;28;20251;-73
2022/02/08 05:59:48;;;;;;;4.30;2.40;;;2.10;99.90;;;;;;5041373;28;20275;-73
2022/02/08 06:02:15;;;;;;;8.27;2.60;;;2.10;99.90;;;;;;5038943;28;20198;-73
2022/02/08 06:04:43;;;;;;;5.68;1.70;;;2.10;99.90;;;;;;5041170;28;20197;-74
2022/02/08 06:07:13;;;;;;;5.10;2.38;;;2.20;99.90;;;;;;5037626;28;20540;-72
2022/02/08 06:09:40;;;;;;;4.20;2.13;;;2.20;99.90;;;;;;5036686;28;20225;-71
2022/02/08 06:12:08;;;;;;;5.60;3.35;;;2.20;99.90;;;;;;5041386;28;20202;-72
2022/02/08 06:14:36;;;;;;;3.67;2.05;;;2.20;99.90;;;;;;5038911;28;20284;-72
2022/02/08 06:17:03;;;;;;;5.60;2.58;;;2.20;99.90;;;;;;5039845;28;20213;-72
2022/02/08 06:19:30;;;;;;;3.42;2.30;;;2.20;99.90;;;;;;5040883;28;20194;-70
2022/02/08 06:21:57;;;;;;;8.30;2.58;;;2.20;99.90;;;;;;5041005;28;20197;-71
2022/02/08 06:24:23;;;;;;;7.05;2.35;;;2.20;99.90;;;;;;5039146;28;20194;-71
2022/02/08 06:26:50;;;;;;;2.25;2.05;;;2.30;99.90;;;;;;5039148;28;20216;-72
2022/02/08 06:29:21;;;;;;;5.30;2.55;;;2.30;99.90;;;;;;5033887;28;20221;-71
2022/02/08 06:31:50;;;;;;;12.60;2.70;;;2.20;99.90;;;;;;5031254;28;20198;-72
2022/02/08 06:34:20;;;;;;;8.60;2.92;;;2.20;99.90;;;;;;5030165;28;20217;-72
2022/02/08 06:36:49;;;;;;;3.90;1.98;;;2.30;99.90;;;;;;5031301;28;20312;-71
2022/02/08 06:39:19;;;;;;;6.20;2.58;;;2.30;99.90;;;;;;5030781;28;20280;-71
2022/02/08 06:41:46;;;;;;;4.05;2.30;;;2.40;99.90;;;;;;5030438;28;20202;-71
2022/02/08 06:44:13;;;;;;;4.10;2.05;;;2.40;99.90;;;;;;5030206;28;20224;-71
2022/02/08 06:46:39;;;;;;;5.45;2.10;;;2.40;99.90;;;;;;5030983;28;20225;-71
2022/02/08 06:49:07;;;;;;;4.95;2.05;;;2.50;99.90;;;;;;5030413;28;20316;-72
2022/02/08 06:51:34;;;;;;;3.25;2.10;;;2.50;99.90;;;;;;5030935;28;20217;-72
2022/02/08 06:54:01;;;;;;;6.28;2.00;;;2.60;99.90;;;;;;5030088;28;20205;-72
2022/02/08 06:56:28;;;;;;;4.93;1.98;;;2.50;99.90;;;;;;5030825;28;20230;-72
2022/02/08 06:59:03;;;;;;;7.05;2.95;;;2.60;99.90;;;;;;5030840;28;20583;-71
2022/02/08 07:01:33;;;;;;;9.65;2.00;;;2.60;99.90;;;;;;5030841;28;20205;-71
2022/02/08 07:04:00;;;;;;;4.25;1.83;;;2.60;99.90;;;;;;5030131;28;20201;-71
2022/02/08 07:06:28;;;;;;;3.33;1.73;;;2.60;99.90;;;;;;5030517;28;20318;-72
2022/02/08 07:08:54;;;;;;;5.93;3.53;;;2.60;99.90;;;;;;5030547;28;20226;-71
2022/02/08 07:11:22;;;;;;;4.10;1.90;;;2.70;99.90;;;;;;5030743;28;20243;-71
2022/02/08 07:13:49;;;;;;;6.40;2.47;;;2.70;99.90;;;;;;5030081;28;20212;-71
2022/02/08 07:16:17;;;;;;;2.95;1.70;;;2.70;99.90;;;;;;5030294;28;20233;-70
2022/02/08 07:18:44;;;;;;;6.93;2.20;;;2.70;99.90;;;;;;5030956;28;20205;-72
2022/02/08 07:21:11;;;;;;;3.80;2.20;;;2.80;99.90;;;;;;5030350;28;20205;-71
2022/02/08 07:23:39;;;;;;;5.20;2.05;;;2.90;99.90;;;;;;5029995;28;20241;-71
2022/02/08 07:26:07;;;;;;;5.18;2.20;;;2.90;99.90;;;;;;5030162;28;20713;-72
2022/02/08 07:28:39;;;;;;;7.05;2.45;;;3.00;99.90;;;;;;5030641;28;20701;-72
2022/02/08 07:31:12;;;;;;;3.67;1.95;;;3.10;99.90;;;;;;5033970;28;20209;-72
2022/02/08 07:33:43;;;;;;;3.42;2.42;;;3.10;99.90;;;;;;5039116;28;20209;-71
2022/02/08 07:36:19;;;;;;;4.65;1.80;;;3.10;99.90;;;;;;5037724;28;20609;-71
2022/02/08 07:38:49;;;;;;;9.02;2.85;;;3.10;99.90;;;;;;5032191;28;20573;-71
2022/02/08 07:44:00;;;;;;;10.45;2.95;;;3.20;99.90;;;;;;5030140;28;20200;-70
2022/02/08 07:46:26;;;;;;;14.35;2.42;;;3.30;99.90;;;;;;5030343;28;20625;-71
2022/02/08 07:48:53;;;;;;;4.32;1.80;;;3.40;99.90;;;;;;5030505;28;20233;-72
2022/02/08 07:51:22;;;;;;;8.02;2.20;;;3.40;99.90;;;;;;5030532;28;20213;-72
2022/02/08 07:53:50;;;;;;;7.45;2.05;;;3.40;99.90;;;;;;5032903;28;20264;-71
2022/02/08 07:56:17;;;;;;;4.90;2.65;;;3.40;99.90;;;;;;5034587;28;20229;-72
2022/02/08 07:58:44;;;;;;;4.53;2.05;;;3.50;99.90;;;;;;5034328;28;20572;-73
2022/02/08 08:01:10;;;;;;;3.45;2.15;;;3.40;99.90;;;;;;5034257;28;20213;-72
2022/02/08 08:03:41;;;;;;;6.80;2.10;;;3.50;99.90;;;;;;5033575;28;20608;-71
2022/02/08 08:06:09;;;;;;;3.75;2.63;;;3.50;99.90;;;;;;5033715;28;20256;-72
2022/02/08 08:08:36;;;;;;;4.80;2.45;;;3.60;99.90;;;;;;5033844;28;20288;-72
2022/02/08 08:11:08;;;;;;;2.90;2.10;;;3.70;99.90;;;;;;5033834;28;20213;-72
2022/02/08 08:13:40;;;;;;;3.58;1.85;;;3.90;99.90;;;;;;5033511;28;20215;-72
2022/02/08 08:16:16;;;;;;;3.40;1.85;;;3.90;99.90;;;;;;5034015;28;20225;-72
2022/02/08 08:18:58;;;;;;;7.30;2.58;;;3.90;99.90;;;;;;5034340;28;20197;-72
2022/02/08 08:21:26;;;;;;;3.17;1.77;;;3.90;99.90;;;;;;5032584;28;20205;-71
2022/02/08 08:23:53;;;;;;;6.38;2.40;;;3.90;99.90;;;;;;5052602;28;20201;-72
2022/02/08 08:26:22;;;;;;;3.28;1.75;;;4.00;99.90;;;;;;5052614;28;20228;-71
2022/02/08 08:28:48;;;;;;;5.88;2.28;;;4.00;99.90;;;;;;5053230;28;20228;-71
2022/02/08 08:31:16;;;;;;;2.90;1.85;;;4.00;99.90;;;;;;5052935;28;20698;-72
2022/02/08 08:33:43;;;;;;;6.40;2.90;;;4.10;99.90;;;;;;5053299;28;20213;-72
2022/02/08 08:36:11;;;;;;;3.03;1.80;;;4.10;99.90;;;;;;5052794;28;20216;-72
2022/02/08 08:38:38;;;;;;;6.03;2.08;;;4.10;99.90;;;;;;5052682;28;20240;-72
2022/02/08 08:41:12;;;;;;;3.55;2.30;;;4.30;99.90;;;;;;5052922;28;20295;-71
2022/02/08 08:49:25;;;;;;;8.45;2.30;;;4.70;99.90;;;;;;5052415;28;20333;-72
2022/02/08 08:51:54;;;;;;;8.95;1.90;;;5.20;99.90;;;;;;5052203;28;20205;-72
2022/02/08 08:54:21;;;;;;;5.85;2.20;;;6.00;99.90;;;;;;5052547;28;20288;-72
2022/02/08 08:56:50;;;;;;;5.43;2.97;;;6.20;99.90;;;;;;5053746;28;20716;-72
2022/02/08 08:59:20;;;;;;;5.22;2.83;;;6.10;99.90;;;;;;5051565;28;20197;-71
2022/02/08 09:01:48;;;;;;;3.75;1.67;;;7.40;99.90;;;;;;5052311;28;20197;-72
2022/02/08 09:04:18;;;;;;;5.78;2.10;;;8.50;99.50;;;;;;5050209;28;20209;-72
2022/02/08 09:06:46;;;;;;;6.82;2.15;;;9.80;98.30;;;;;;5051762;28;20267;-73
2022/02/08 09:09:16;;;;;;;6.55;2.30;;;11.00;96.40;;;;;;5051839;28;20705;-71
2022/02/08 09:11:53;;;;;;;5.97;2.10;;;12.30;94.40;;;;;;5052488;28;20224;-71
2022/02/08 09:14:34;;;;;;;8.02;2.90;;;13.70;93.40;;;;;;5051166;28;20235;-70
2022/02/08 09:17:17;;;;;;;4.65;2.35;;;15.00;92.20;;;;;;5050969;28;20352;-72
2022/02/08 09:20:08;;;;;;;11.20;2.30;;;14.10;91.40;;;;;;5051926;28;20289;-72
2022/02/08 09:22:59;;;;;;;4.38;2.42;;;14.40;91.30;;;;;;5050919;28;20676;-71
2022/02/08 09:25:44;;;;;;;5.25;2.40;;;14.80;90.60;;;;;;5051723;28;20588;-72
2022/02/08 09:28:21;;;;;;;3.03;1.95;;;15.40;90.10;;;;;;5050561;28;20208;-71
2022/02/08 09:30:56;;;;;;;3.35;1.95;;;15.20;88.80;;;;;;5051670;28;20573;-72
2022/02/08 09:33:23;;;;;;;3.63;1.90;;;15.30;89.70;;;;;;5050407;28;20212;-71
2022/02/08 09:35:50;;;;;;;6.20;1.75;;;15.80;87.40;;;;;;5051279;28;20998;-71
2022/02/08 09:38:17;;;;;;;4.30;1.65;;;16.20;87.40;;;;;;5051116;28;20746;-72
2022/02/08 09:40:45;;;;;;;3.42;2.20;;;16.50;86.70;;;;;;5051346;28;20193;-71
2022/02/08 09:43:13;;;;;;;3.13;1.93;;;16.30;86.10;;;;;;5049959;28;20212;-71
2022/02/08 09:45:46;;;;;;;4.40;2.08;;;16.00;85.80;;;;;;5051520;28;20488;-70
2022/02/08 09:48:24;;;;;;;6.22;2.70;;;15.60;86.40;;;;;;5051005;28;20653;-71
2022/02/08 09:50:51;;;;;;;2.50;1.83;;;15.20;87.70;;;;;;5051349;28;20319;-71
2022/02/08 09:53:24;;;;;;;7.45;2.15;;;15.60;87.10;;;;;;5049944;28;20291;-71
2022/02/08 09:55:51;;;;;;;4.25;1.60;;;15.90;86.20;;;;;;5053680;28;20221;-71
2022/02/08 09:58:17;;;;;;;7.00;2.20;;;15.50;86.80;;;;;;5051936;28;20577;-72
2022/02/08 10:00:44;;;;;;;3.05;1.88;;;15.70;86.70;;;;;;5051212;28;20466;-73
2022/02/08 10:03:13;;;;;;;5.85;2.13;;;15.30;86.00;;;;;;5050889;28;20211;-71
2022/02/08 10:05:46;;;;;;;6.57;2.22;;;15.30;87.30;;;;;;5051193;28;20228;-71
2022/02/08 10:08:14;;;;;;;7.10;1.98;;;15.40;87.00;;;;;;5051389;28;20572;-71
2022/02/08 10:10:42;;;;;;;4.63;2.17;;;15.70;86.50;;;;;;5050807;28;20236;-71
2022/02/08 10:13:30;;;;;;;6.78;2.05;;;15.10;87.20;;;;;;5049807;28;20261;-71
2022/02/08 10:21:44;;;;;;;4.13;1.93;;;15.00;87.10;;;;;;4975543;28;20744;-71
2022/02/08 10:24:12;;;;;;;5.00;1.80;;;14.90;88.00;;;;;;5049930;28;20462;-71
2022/02/08 10:26:43;;;;;;;5.30;2.20;;;15.50;87.00;;;;;;5050843;28;20805;-71
2022/02/08 10:29:19;;;;;;;4.27;1.80;;;15.30;86.40;;;;;;5050067;28;20455;-71
2022/02/08 10:37:41;;;;;;;5.10;1.85;;;14.70;88.70;;;;;;5050550;28;20236;-72
2022/02/08 10:40:11;;;;;;;2.70;1.63;;;15.30;88.60;;;;;;5050311;28;20197;-72
2022/02/08 10:42:39;;;;;;;2.90;1.95;;;15.30;86.80;;;;;;5049777;28;20464;-71
2022/02/08 10:45:18;;;;;;;5.40;2.27;;;15.30;88.00;;;;;;5050464;28;20211;-71
2022/02/08 10:47:48;;;;;;;4.00;2.23;;;15.70;90.00;;;;;;5047652;28;20965;-72
2022/02/08 10:50:16;;;;;;;2.73;1.70;;;17.10;86.30;;;;;;5050572;28;20522;-72
2022/02/08 10:52:45;;;;;;;4.20;2.17;;;18.40;82.80;;;;;;5050019;28;20510;-72
2022/02/08 10:55:22;;;;;;;4.60;2.13;;;19.20;82.40;;;;;;5050217;28;20479;-72
2022/02/08 10:57:57;;;;;;;4.70;2.00;;;18.80;81.10;;;;;;5050778;28;20486;-71
2022/02/08 11:00:31;;;;;;;10.63;2.27;;;17.70;83.40;;;;;;5048441;28;20462;-71
2022/02/08 11:03:00;;;;;;;4.33;2.00;;;16.50;84.90;;;;;;5049959;28;20878;-72
2022/02/08 11:05:38;;;;;;;4.10;2.47;;;17.20;85.70;;;;;;5049741;28;20979;-72
2022/02/08 11:08:20;;;;;;;4.83;2.23;;;18.40;84.00;;;;;;5050390;28;20459;-72
2022/02/08 11:13:44;;;;;;;4.03;2.20;;;21.20;80.60;;;;;;5050360;28;21028;-73
2022/02/08 11:16:18;;;;;;;4.83;2.07;;;22.20;78.70;;;;;;5049993;28;20697;-73
2022/02/08 11:19:06;;;;;;;3.97;2.20;;;22.30;78.40;;;;;;5050029;28;20455;-72
2022/02/08 11:21:48;;;;;;;4.27;2.00;;;22.20;78.30;;;;;;5049933;28;20452;-72
2022/02/08 11:24:25;;;;;;;3.63;1.87;;;21.10;79.40;;;;;;5049422;28;20451;-72
2022/02/08 11:26:58;;;;;;;3.10;1.70;;;21.50;79.50;;;;;;5050062;28;20514;-72
2022/02/08 11:29:29;;;;;;;3.10;1.60;;;21.40;78.90;;;;;;5053519;28;20487;-72
2022/02/08 11:32:02;;;;;;;5.10;2.00;;;21.60;78.40;;;;;;5054105;28;20455;-74
2022/02/08 11:46:23;;;;;;;3.40;2.17;;;19.40;82.70;;;;;;5090105;28;20935;-73
2022/02/08 11:52:15;;;;;;;5.50;2.30;;;16.20;89.20;;;;;;5093583;28;20468;-73
2022/02/08 11:55:06;;;;;;;3.47;2.00;;;14.90;91.30;;;;;;5093803;28;20472;-74
2022/02/08 12:00:32;;;;;;;4.37;2.10;;;13.80;92.70;;;;;;5093579;28;20441;-74
2022/02/08 12:03:28;;;;;;;4.00;1.88;;;13.30;93.50;;;;;;5093459;28;20467;-73
2022/02/08 12:06:11;;;;;;;3.58;1.67;;;13.40;93.70;;;;;;5093564;28;20232;-74
2022/02/08 12:08:41;;;;;;;2.80;1.87;;;13.40;93.80;;;;;;5093749;28;20238;-73
2022/02/08 12:11:19;;;;;;;5.00;1.60;;;13.40;94.30;;;;;;5091362;28;20495;-73
2022/02/08 12:33:28;;;;;;;2.95;1.27;;;12.60;96.60;;;;;;5086621;28;20302;-73
2022/02/08 12:36:28;;;;;;;3.00;1.30;;;12.40;97.00;;;;;;5087484;28;20288;-73
2022/02/08 12:51:00;;;;;;;5.82;1.45;;;14.10;96.30;;;;;;5086559;28;20234;-74
2022/02/08 12:53:53;;;;;;;4.67;1.47;;;14.70;95.70;;;;;;5086165;28;20296;-73
2022/02/08 12:56:31;;;;;;;4.00;1.60;;;15.60;95.30;;;;;;5086089;28;20993;-74
2022/02/08 12:59:11;;;;;;;3.53;1.40;;;15.30;94.60;;;;;;5086965;28;20457;-74
2022/02/08 13:02:07;;;;;;;5.40;1.48;;;14.60;95.30;;;;;;5087224;28;20454;-73
2022/02/08 14:02:03;;;;;;;4.20;2.10;;;10.40;99.90;;;;;;5051561;28;20231;-72
2022/02/08 14:07:20;;;;;;;3.50;2.13;;;10.20;99.90;;;;;;5052157;28;20192;-73
2022/02/08 14:09:59;;;;;;;2.50;1.35;;;10.20;99.90;;;;;;5052654;28;20254;-73
2022/02/08 14:15:30;;;;;;;2.20;1.70;;;10.20;99.90;;;;;;5048539;28;20231;-72
2022/02/08 14:18:07;;;;;;;2.80;1.52;;;10.20;99.90;;;;;;5051698;28;20258;-73
2022/02/08 14:23:50;;;;;;;5.40;1.20;;;9.90;99.90;;;;;;5025854;28;20283;-73
2022/02/08 14:48:50;;;;;;;3.88;1.60;;;9.60;99.90;;;;;;5051438;28;20717;-73
2022/02/08 15:10:23;;;;;;;2.70;1.45;;;9.20;99.90;;;;;;5047212;28;20224;-73
2022/02/08 15:12:53;;;;;;;4.00;1.48;;;9.10;99.90;;;;;;5050850;28;20304;-72
2022/02/08 15:15:29;;;;;;;1.90;1.20;;;9.20;99.90;;;;;;5049733;28;20225;-73
2022/02/08 15:17:57;;;;;;;2.35;1.50;;;9.20;99.90;;;;;;5051095;28;20205;-73
2022/02/08 15:20:25;;;;;;;3.22;1.80;;;9.10;99.90;;;;;;5050625;28;20208;-73
2022/02/08 15:22:55;;;;;;;3.53;1.27;;;9.00;99.90;;;;;;5050679;28;20296;-72
2022/02/08 15:25:22;;;;;;;2.58;1.33;;;9.00;99.90;;;;;;5050900;28;20225;-73
2022/02/08 15:27:49;;;;;;;1.20;1.05;;;9.00;99.90;;;;;;5050559;28;20212;-73
2022/02/08 15:30:16;;;;;;;1.95;1.10;;;9.00;99.90;;;;;;5050677;28;20208;-72
2022/02/08 15:32:42;;;;;;;2.22;1.65;;;8.90;99.90;;;;;;5050620;28;20595;-73
2022/02/08 15:35:11;;;;;;;2.88;1.85;;;8.90;99.90;;;;;;5050721;28;20225;-73
2022/02/08 15:37:38;;;;;;;4.63;2.08;;;8.90;99.90;;;;;;5050862;28;20567;-73
2022/02/08 15:40:09;;;;;;;2.08;1.38;;;8.90;99.90;;;;;;5051163;28;20689;-73
2022/02/08 15:42:39;;;;;;;3.22;1.70;;;8.90;99.90;;;;;;5050198;28;20339;-73
2022/02/08 15:45:14;;;;;;;2.63;1.45;;;8.80;99.90;;;;;;5051862;28;20201;-73
2022/02/08 15:47:41;;;;;;;2.83;1.40;;;8.80;99.90;;;;;;5051229;28;20204;-73
2022/02/08 15:50:13;;;;;;;2.42;1.70;;;8.90;99.90;;;;;;5050345;28;20674;-73
2022/02/08 15:53:06;;;;;;;3.28;1.70;;;8.90;99.90;;;;;;5050508;28;20204;-73
2022/02/08 15:55:41;;;;;;;3.17;2.28;;;8.80;99.90;;;;;;5050898;28;20225;-72
2022/02/08 15:58:20;;;;;;;2.80;1.80;;;8.80;99.90;;;;;;5050594;28;20299;-73
2022/02/08 16:09:15;;;;;;;5.07;1.65;;;8.70;99.90;;;;;;5050611;28;20212;-72
2022/02/08 16:11:57;;;;;;;3.47;1.73;;;8.70;99.90;;;;;;5050461;28;20810;-72
2022/02/08 16:14:44;;;;;;;2.10;1.65;;;8.70;99.90;;;;;;5049841;28;20614;-72
2022/02/08 16:17:25;;;;;;;2.97;1.98;;;8.70;99.90;;;;;;5049943;28;20692;-73
2022/02/08 16:20:05;;;;;;;3.95;1.50;;;8.60;99.90;;;;;;5050416;28;20254;-72
2022/02/08 16:25:35;;;;;;;4.47;1.52;;;8.60;99.90;;;;;;5029801;28;20612;-73
2022/02/08 16:28:17;;;;;;;2.47;1.50;;;8.60;99.90;;;;;;5030070;28;20202;-73
2022/02/08 16:51:01;;;;;;;3.30;1.65;;;8.30;99.90;;;;;;5029897;28;20625;-72
2022/02/08 16:53:23;;;;;;;2.50;1.80;;;8.30;99.90;;;;;;5028995;28;20728;-73
2022/02/08 16:58:41;;;;;;;2.58;1.60;;;8.30;99.90;;;;;;5016952;28;20237;-72
2022/02/08 17:01:13;;;;;;;4.50;1.95;;;8.30;99.90;;;;;;5031807;28;20296;-73
2022/02/08 17:03:45;;;;;;;3.15;1.98;;;8.30;99.90;;;;;;5033534;28;20206;-74
2022/02/08 17:06:12;;;;;;;2.50;2.03;;;8.30;99.90;;;;;;5033119;28;20217;-73
2022/02/08 17:08:39;;;;;;;4.05;1.80;;;8.30;99.90;;;;;;5032761;28;20939;-74
2022/02/08 17:11:06;;;;;;;2.25;1.90;;;8.30;99.90;;;;;;5033512;28;20202;-73
2022/02/08 17:13:51;;;;;;;6.15;2.63;;;8.30;99.90;;;;;;5032179;28;20260;-74
2022/02/08 17:16:27;;;;;;;3.80;2.10;;;8.30;99.90;;;;;;5032798;28;20225;-73
2022/02/08 17:46:36;;;;;;;3.65;2.28;;;8.20;99.90;;;;;;5019515;28;20248;-73
2022/02/08 17:49:03;;;;;;;7.50;2.85;;;8.20;99.90;;;;;;5012774;28;20216;-73
2022/02/08 17:51:30;;;;;;;6.00;2.90;;;8.20;99.90;;;;;;5012767;28;20213;-73
2022/02/08 17:53:57;;;;;;;5.80;2.90;;;8.20;99.90;;;;;;5012386;28;20229;-73
2022/02/08 17:56:24;;;;;;;4.03;2.15;;;8.10;99.90;;;;;;5012867;28;20234;-74
2022/02/08 17:58:52;;;;;;;6.47;2.65;;;8.10;99.90;;;;;;5013169;28;20198;-74
2022/02/08 18:01:19;;;;;;;8.38;3.00;;;8.10;99.90;;;;;;5012932;28;20585;-74
2022/02/08 18:03:47;;;;;;;3.85;2.72;;;8.10;99.90;;;;;;5013361;28;20206;-74
2022/02/08 18:06:13;;;;;;;4.43;1.90;;;8.10;99.90;;;;;;5012522;28;20218;-73
2022/02/08 18:08:41;;;;;;;6.45;3.60;;;8.10;99.90;;;;;;5013464;28;20585;-73
2022/02/08 18:11:09;;;;;;;5.65;2.85;;;8.10;99.90;;;;;;5013086;28;20244;-74
2022/02/08 18:13:40;;;;;;;4.40;2.28;;;8.10;99.90;;;;;;5008094;28;20221;-73
2022/02/08 18:16:15;;;;;;;9.38;2.70;;;8.10;99.90;;;;;;5012638;28;20230;-74
2022/02/08 18:18:44;;;;;;;3.63;2.80;;;8.10;99.90;;;;;;5011654;28;20700;-73
2022/02/08 18:21:19;;;;;;;3.08;2.28;;;8.10;99.90;;;;;;5011659;28;20203;-73
2022/02/08 18:24:14;;;;;;;4.63;2.08;;;8.10;99.90;;;;;;5011274;28;20210;-73
2022/02/08 18:57:16;;;;;;;3.00;2.10;;;8.00;99.90;;;;;;5008533;28;20229;-73
2022/02/08 19:08:28;;;;;;;3.85;2.85;;;7.90;99.90;;;;;;5105375;27;20541;-72
2022/02/08 19:14:16;;;;;;;6.72;3.10;;;8.00;99.90;;;;;;5087059;28;20637;-70
2022/02/08 19:16:54;;;;;;;5.85;2.35;;;7.90;99.90;;;;;;5090988;28;20265;-71